Time;durP1;ratioP1;P1;durP2;ratioP2;P2;SDS_P1;SDS_P2;PMS_P1;PMS_P2;Temp;Humidity;BMP_temperature;BMP_pressure;BME280_temperature;BME280_humidity;BME280_pressure;Samples;Min_cycle;Max_cycle;Signal;HPM_P1;HPM_P2
2022/05/09 00:00:45;;;;;;;2.37;1.23;;;8.60;1.00;;;;;;10383332;28;20206;-86
2022/05/09 00:06:06;;;;;;;2.47;1.30;;;8.60;1.00;;;;;;10369718;28;20199;-88
2022/05/09 00:11:32;;;;;;;2.40;1.00;;;8.60;99.90;;;;;;10383780;28;20228;-88
2022/05/09 00:16:54;;;;;;;1.67;1.33;;;8.60;13.70;;;;;;10382480;28;20250;-87
2022/05/09 00:22:15;;;;;;;2.67;1.23;;;8.70;1.00;;;;;;10382344;28;20257;-89
2022/05/09 00:27:36;;;;;;;1.60;0.80;;;8.70;99.90;;;;;;10397167;28;20384;-89
2022/05/09 00:32:58;;;;;;;5.00;1.20;;;8.70;1.00;;;;;;10368659;28;20251;-88
2022/05/09 00:38:19;;;;;;;1.20;1.07;;;8.70;1.00;;;;;;10382056;28;20258;-89
2022/05/09 00:43:41;;;;;;;3.70;1.30;;;8.60;1.00;;;;;;10381966;28;20209;-90
2022/05/09 00:49:27;;;;;;;3.77;1.50;;;8.50;1.00;;;;;;10368402;28;20525;-88
2022/05/09 00:54:54;;;;;;;1.93;1.20;;;8.40;1.00;;;;;;10382020;28;20578;-91
2022/05/09 01:00:18;;;;;;;2.77;1.00;;;8.40;99.90;;;;;;10382061;28;20235;-85
2022/05/09 01:05:42;;;;;;;1.77;1.00;;;8.30;99.90;;;;;;10381744;28;20207;-88
2022/05/09 01:11:09;;;;;;;4.30;1.10;;;8.30;99.90;;;;;;10395574;28;20227;-88
2022/05/09 01:16:31;;;;;;;2.03;1.03;;;8.30;2.40;;;;;;10395673;28;20226;-87
2022/05/09 01:21:54;;;;;;;5.47;1.60;;;8.30;1.00;;;;;;10381208;28;20210;-86
2022/05/09 01:27:16;;;;;;;3.97;1.43;;;8.20;1.00;;;;;;10396036;28;20218;-88
2022/05/09 01:32:46;;;;;;;2.83;1.43;;;8.20;1.00;;;;;;10388313;28;20237;-86
2022/05/09 01:38:27;;;;;;;2.63;1.20;;;8.10;1.00;;;;;;10395135;28;20254;-86
2022/05/09 01:43:52;;;;;;;2.53;1.27;;;8.10;1.00;;;;;;10388884;28;20501;-87
2022/05/09 01:49:31;;;;;;;1.53;1.00;;;8.00;1.00;;;;;;10402625;28;20548;-87
2022/05/09 01:54:52;;;;;;;2.20;1.20;;;7.90;99.90;;;;;;10388038;28;20212;-90
2022/05/09 02:00:14;;;;;;;3.50;1.70;;;7.90;99.90;;;;;;10388589;28;20191;-89
2022/05/09 02:05:36;;;;;;;2.27;1.40;;;8.00;99.90;;;;;;10388006;28;20211;-89
2022/05/09 02:10:57;;;;;;;1.57;1.00;;;;;;;;;;10402620;28;20228;-89
2022/05/09 02:16:18;;;;;;;1.63;1.10;;;7.80;1.00;;;;;;10387405;28;20199;-88
2022/05/09 02:21:40;;;;;;;4.80;1.03;;;7.60;1.00;;;;;;10386964;28;20206;-86
2022/05/09 02:27:01;;;;;;;4.23;1.40;;;7.60;99.90;;;;;;10401075;28;20205;-88
2022/05/09 02:32:22;;;;;;;4.10;1.47;;;7.50;1.00;;;;;;10387011;28;20528;-90
2022/05/09 02:37:44;;;;;;;4.93;1.60;;;7.50;1.00;;;;;;10372419;28;20250;-89
2022/05/09 02:43:06;;;;;;;2.70;1.43;;;7.50;99.90;;;;;;10386436;28;20228;-89
2022/05/09 02:48:29;;;;;;;2.90;1.43;;;7.50;99.90;;;;;;10386388;28;20220;-87
2022/05/09 02:53:50;;;;;;;7.60;1.37;;;7.50;99.90;;;;;;10386129;28;20467;-90
2022/05/09 02:59:11;;;;;;;4.17;1.30;;;7.50;99.90;;;;;;10386249;28;20208;-88
2022/05/09 03:04:41;;;;;;;4.40;1.13;;;7.40;1.00;;;;;;10399339;28;20249;-91
2022/05/09 03:10:05;;;;;;;4.33;1.70;;;7.50;1.00;;;;;;10385956;28;20331;-90
2022/05/09 03:15:29;;;;;;;4.57;2.37;;;7.50;1.00;;;;;;10385336;28;20507;-90
2022/05/09 03:20:51;;;;;;;3.87;1.93;;;7.40;1.00;;;;;;10384217;28;20229;-91
2022/05/09 03:26:13;;;;;;;3.80;2.00;;;7.50;1.00;;;;;;10399956;28;20487;-87
2022/05/09 03:31:38;;;;;;;4.97;2.03;;;7.50;1.00;;;;;;10398503;28;20224;-90
2022/05/09 03:36:59;;;;;;;4.07;2.10;;;7.50;1.00;;;;;;10384220;28;20309;-90
2022/05/09 03:42:20;;;;;;;3.80;1.67;;;7.40;1.00;;;;;;10397988;28;20479;-88
2022/05/09 03:47:42;;;;;;;4.23;1.90;;;7.50;1.00;;;;;;10383783;28;20280;-87
2022/05/09 03:53:05;;;;;;;5.10;2.00;;;7.50;1.00;;;;;;10369785;28;20238;-88
2022/05/09 03:58:26;;;;;;;3.23;1.90;;;7.60;1.00;;;;;;10383582;28;20523;-89
2022/05/09 04:03:48;;;;;;;4.13;2.30;;;7.60;1.00;;;;;;10383500;28;20203;-90
2022/05/09 04:09:09;;;;;;;7.80;3.60;;;7.80;1.00;;;;;;10383064;28;20234;-89
2022/05/09 04:20:13;;;;;;;7.77;2.80;;;7.90;1.00;;;;;;10382361;28;20214;-89
2022/05/09 04:25:35;;;;;;;5.67;2.57;;;8.00;1.00;;;;;;10396380;28;20239;-90
2022/05/09 04:30:57;;;;;;;5.93;1.70;;;8.10;1.00;;;;;;10382715;28;20324;-90
2022/05/09 04:36:22;;;;;;;3.43;1.80;;;8.20;1.00;;;;;;10382273;28;20243;-89
2022/05/09 04:41:44;;;;;;;4.60;1.87;;;8.20;1.00;;;;;;10382402;28;20207;-89
2022/05/09 04:47:05;;;;;;;7.00;3.80;;;8.30;1.00;;;;;;10382003;28;20252;-88
2022/05/09 04:52:26;;;;;;;6.37;3.47;;;8.50;1.00;;;;;;10382031;28;20240;-88
2022/05/09 04:57:50;;;;;;;13.63;4.67;;;8.60;1.00;;;;;;10368426;28;20278;-89
2022/05/09 05:03:11;;;;;;;6.93;3.00;;;8.70;1.00;;;;;;10395930;28;20210;-90
2022/05/09 05:08:34;;;;;;;15.63;4.87;;;8.80;99.90;;;;;;10389947;28;20207;-91
2022/05/09 05:13:55;;;;;;;13.20;5.30;;;8.90;99.90;;;;;;10390157;28;20213;-91
2022/05/09 05:19:18;;;;;;;11.33;3.97;;;9.00;99.90;;;;;;10390147;28;20231;-89
2022/05/09 05:24:43;;;;;;;12.83;3.57;;;9.10;99.90;;;;;;10389551;28;20289;-88
2022/05/09 05:30:06;;;;;;;5.40;2.00;;;9.10;99.90;;;;;;10408572;28;20257;-85
2022/05/09 05:35:29;;;;;;;6.90;3.10;;;9.20;99.90;;;;;;10421995;28;20302;-90
2022/05/09 05:40:50;;;;;;;2.73;1.20;;;9.50;99.90;;;;;;10395586;28;20207;-79
2022/05/09 05:46:12;;;;;;;5.20;1.87;;;9.70;42.70;;;;;;10399713;28;20200;-88
2022/05/09 05:51:34;;;;;;;4.60;1.70;;;10.10;1.00;;;;;;10413172;28;20214;-91
2022/05/09 05:56:56;;;;;;;3.97;1.77;;;10.40;99.90;;;;;;10403924;28;20226;-85
2022/05/09 06:02:18;;;;;;;5.07;1.77;;;10.90;99.90;;;;;;10407565;28;20211;-89
2022/05/09 06:07:41;;;;;;;5.37;1.60;;;11.30;99.90;;;;;;10405870;28;20270;-90
2022/05/09 06:13:13;;;;;;;5.53;1.53;;;11.90;99.90;;;;;;10432933;23;20253;-79
2022/05/09 06:18:36;;;;;;;5.80;2.23;;;12.50;29.70;;;;;;10215755;29;20220;-89
2022/05/09 06:23:58;;;;;;;4.93;2.10;;;13.10;1.00;;;;;;10228243;29;20225;-86
2022/05/09 06:29:23;;;;;;;4.45;2.15;;;13.80;1.00;;;;;;10225974;29;20219;-86
2022/05/09 06:35:00;;;;;;;5.93;2.00;;;14.40;1.00;;;;;;10204182;29;20211;-92
2022/05/09 06:40:21;;;;;;;6.75;1.58;;;15.00;99.90;;;;;;10204599;29;20252;-91
2022/05/09 06:45:42;;;;;;;2.78;1.27;;;15.10;1.00;;;;;;10198866;29;20286;-93
2022/05/09 06:51:04;;;;;;;3.42;1.42;;;15.20;99.90;;;;;;10197110;29;20235;-92
2022/05/09 06:56:25;;;;;;;2.95;1.52;;;15.60;79.50;;;;;;10181691;29;20208;-94
2022/05/09 07:01:48;;;;;;;6.13;2.60;;;16.20;1.00;;;;;;10197833;29;20288;-93
2022/05/09 07:07:09;;;;;;;2.28;1.42;;;16.40;1.00;;;;;;10165401;29;20236;-92
2022/05/09 07:12:31;;;;;;;6.15;1.92;;;17.00;1.00;;;;;;10159599;29;20255;-87
2022/05/09 07:17:53;;;;;;;7.55;1.95;;;17.20;1.00;;;;;;10223110;29;20303;-90
2022/05/09 07:23:15;;;;;;;6.00;2.45;;;17.20;99.90;;;;;;10201894;29;20505;-88
2022/05/09 07:28:36;;;;;;;3.10;2.05;;;17.30;99.90;;;;;;10206306;29;20519;-85
2022/05/09 07:33:58;;;;;;;6.75;1.65;;;18.10;99.90;;;;;;10193537;29;20243;-87
2022/05/09 07:39:19;;;;;;;4.05;1.98;;;18.00;99.90;;;;;;10210043;29;20499;-85
2022/05/09 07:44:40;;;;;;;5.10;1.77;;;18.50;99.90;;;;;;10200691;29;20212;-88
2022/05/09 07:50:02;;;;;;;5.82;2.53;;;18.80;99.90;;;;;;10195390;29;20268;-86
2022/05/09 07:55:23;;;;;;;3.08;1.77;;;19.00;99.90;;;;;;10200433;29;20510;-87
2022/05/09 08:00:45;;;;;;;5.05;2.15;;;19.40;99.90;;;;;;10210628;29;20211;-93
2022/05/09 08:06:06;;;;;;;5.40;2.22;;;19.60;99.90;;;;;;10198917;29;20232;-87
2022/05/09 08:11:28;;;;;;;2.75;1.20;;;19.80;64.00;;;;;;10207654;29;20431;-88
2022/05/09 08:16:49;;;;;;;2.00;1.00;;;20.20;24.00;;;;;;10192877;29;20228;-84
2022/05/09 08:22:10;;;;;;;1.35;1.08;;;20.50;1.00;;;;;;10208193;29;20385;-92
2022/05/09 08:27:37;;;;;;;2.85;1.38;;;21.10;1.00;;;;;;10193051;29;20208;-90
2022/05/09 08:32:59;;;;;;;2.30;1.10;;;21.20;1.00;;;;;;10208335;29;20309;-89
2022/05/09 08:38:22;;;;;;;4.70;1.35;;;21.70;99.90;;;;;;10188515;29;20210;-87
2022/05/09 08:43:59;;;;;;;2.67;1.05;;;21.70;99.90;;;;;;10201994;29;20208;-85
2022/05/09 08:49:39;;;;;;;7.68;2.10;;;22.10;99.90;;;;;;10203381;29;20562;-87
2022/05/09 08:55:02;;;;;;;1.80;1.05;;;21.80;99.90;;;;;;10222283;29;20224;-90
2022/05/09 09:00:29;;;;;;;2.78;1.45;;;21.70;99.90;;;;;;10191803;29;20216;-88
2022/05/09 09:05:54;;;;;;;5.10;1.10;;;22.10;99.90;;;;;;10189137;29;20228;-88
2022/05/09 09:11:21;;;;;;;5.55;1.30;;;21.80;99.90;;;;;;10225863;28;20244;-86
2022/05/09 09:16:52;;;;;;;2.60;1.40;;;22.00;99.90;;;;;;10207408;29;20489;-89
2022/05/09 09:22:28;;;;;;;1.25;0.82;;;22.00;99.90;;;;;;10190087;29;20247;-85
2022/05/09 09:27:55;;;;;;;4.60;1.30;;;22.20;99.90;;;;;;10204357;29;20436;-86
2022/05/09 09:33:19;;;;;;;3.78;1.98;;;22.60;99.90;;;;;;10205723;29;20568;-84
2022/05/09 09:38:43;;;;;;;2.22;1.33;;;23.20;99.90;;;;;;10207669;29;20228;-89
2022/05/09 09:44:13;;;;;;;2.08;1.52;;;23.60;99.90;;;;;;10206456;29;20240;-90
2022/05/09 09:49:38;;;;;;;1.90;1.02;;;23.50;99.90;;;;;;10206874;29;20361;-87
2022/05/09 09:55:25;;;;;;;2.85;1.27;;;24.00;99.90;;;;;;10211671;29;20255;-88
2022/05/09 10:00:46;;;;;;;3.88;1.98;;;23.90;99.90;;;;;;10171592;29;20204;-83
2022/05/09 10:06:34;;;;;;;2.08;1.20;;;23.90;99.90;;;;;;10208327;29;20228;-87
2022/05/09 10:12:21;;;;;;;2.58;1.30;;;23.10;99.90;;;;;;10212872;28;20224;-86
2022/05/09 10:17:42;;;;;;;4.63;1.40;;;23.60;99.90;;;;;;10196637;29;20248;-85
2022/05/09 10:29:14;;;;;;;2.65;1.45;;;23.20;99.90;;;;;;10225704;28;20436;-83
2022/05/09 10:34:49;;;;;;;3.92;1.40;;;23.20;99.90;;;;;;10181977;29;20205;-84
2022/05/09 10:40:36;;;;;;;9.75;5.57;;;22.70;99.90;;;;;;10195226;29;20231;-81
2022/05/09 10:45:57;;;;;;;2.38;1.50;;;22.50;99.90;;;;;;10182369;29;20445;-78
2022/05/09 10:51:28;;;;;;;4.95;1.40;;;22.90;99.90;;;;;;10194134;29;20232;-79
2022/05/09 10:57:10;;;;;;;6.35;1.33;;;23.00;99.90;;;;;;10195442;29;20196;-86
2022/05/09 11:02:57;;;;;;;2.00;1.50;;;23.10;99.90;;;;;;10200643;29;20222;-84
2022/05/09 11:08:27;;;;;;;3.55;1.38;;;22.80;99.90;;;;;;10202217;29;20571;-80
2022/05/09 11:14:12;;;;;;;3.22;1.95;;;22.90;99.90;;;;;;10194567;29;20268;-87
2022/05/09 11:19:50;;;;;;;3.25;1.98;;;23.00;99.90;;;;;;10196939;29;20212;-85
2022/05/09 11:25:38;;;;;;;1.52;1.30;;;23.00;99.90;;;;;;10209003;29;20216;-82
2022/05/09 11:31:02;;;;;;;2.28;1.30;;;23.30;99.90;;;;;;10189993;29;20311;-79
2022/05/09 11:36:37;;;;;;;1.73;1.08;;;23.30;99.90;;;;;;10209772;29;20260;-85
2022/05/09 11:43:27;;;;;;;4.47;1.52;;;23.20;99.90;;;;;;10192344;29;20272;-84
2022/05/09 11:47:51;;;;;;;5.25;1.70;;;23.10;99.90;;;;;;10186111;29;20212;-82
2022/05/09 11:53:14;;;;;;;4.50;1.40;;;23.00;99.90;;;;;;10208052;29;20247;-79
2022/05/09 11:58:41;;;;;;;5.00;1.50;;;22.90;99.90;;;;;;10191436;29;20235;-79
2022/05/09 12:04:03;;;;;;;7.30;1.40;;;22.60;99.90;;;;;;10190984;29;20208;-82
2022/05/09 12:09:53;;;;;;;2.72;1.77;;;22.70;99.90;;;;;;10216108;28;20241;-82
2022/05/09 12:15:15;;;;;;;5.22;1.90;;;22.70;99.90;;;;;;10190862;29;20318;-82
2022/05/09 12:20:37;;;;;;;5.93;1.65;;;22.90;99.90;;;;;;10193555;29;20215;-80
2022/05/09 12:26:03;;;;;;;3.38;1.63;;;22.90;99.90;;;;;;10192523;29;20207;-82
2022/05/09 12:31:29;;;;;;;1.75;1.33;;;22.80;99.90;;;;;;10189874;29;20557;-83
2022/05/09 12:36:51;;;;;;;5.07;1.40;;;23.00;99.90;;;;;;10203775;29;20207;-79
2022/05/09 12:42:53;;;;;;;2.65;1.42;;;23.30;99.90;;;;;;10218497;29;20220;-81
2022/05/09 12:48:14;;;;;;;7.30;1.77;;;23.40;99.90;;;;;;10185814;29;20221;-82
2022/05/09 12:53:37;;;;;;;7.53;1.20;;;23.10;99.90;;;;;;10202977;29;20232;-79
2022/05/09 12:59:06;;;;;;;3.15;1.42;;;22.50;99.90;;;;;;10176447;29;20252;-79
2022/05/09 13:04:32;;;;;;;12.05;7.30;;;22.40;99.90;;;;;;10232353;28;20310;-85
2022/05/09 13:09:55;;;;;;;3.78;2.05;;;22.60;99.90;;;;;;10221076;29;20275;-84
2022/05/09 13:15:19;;;;;;;4.22;1.77;;;22.40;99.90;;;;;;10226161;28;20247;-85
2022/05/09 13:20:53;;;;;;;4.70;2.05;;;22.40;99.90;;;;;;10190331;29;20244;-85
2022/05/09 13:26:28;;;;;;;3.10;1.50;;;22.00;99.90;;;;;;10217995;29;20510;-82
2022/05/09 13:31:51;;;;;;;3.72;1.80;;;21.70;99.90;;;;;;10228506;29;20248;-81
2022/05/09 13:37:25;;;;;;;2.53;1.58;;;21.70;99.90;;;;;;10233669;29;20220;-83
2022/05/09 13:42:49;;;;;;;4.68;1.85;;;21.80;99.90;;;;;;10218950;29;20208;-81
2022/05/09 13:48:20;;;;;;;2.70;1.50;;;21.40;99.90;;;;;;10194839;29;20211;-81
2022/05/09 13:53:46;;;;;;;3.97;1.65;;;21.30;99.90;;;;;;10220852;29;20228;-85
2022/05/09 13:59:09;;;;;;;5.00;2.15;;;21.20;99.90;;;;;;10221062;28;20200;-85
2022/05/09 14:04:32;;;;;;;4.30;1.58;;;21.10;99.90;;;;;;10222046;29;20237;-81
2022/05/09 14:09:57;;;;;;;2.38;1.40;;;20.50;99.90;;;;;;10210697;29;20231;-88
2022/05/09 14:15:21;;;;;;;2.80;2.10;;;20.30;99.90;;;;;;10231359;29;20580;-86
2022/05/09 14:20:43;;;;;;;4.45;1.73;;;20.30;99.90;;;;;;10214286;29;20369;-83
2022/05/09 14:32:08;;;;;;;6.43;1.65;;;19.50;99.90;;;;;;10212828;29;20540;-85
2022/05/09 14:37:33;;;;;;;3.05;1.77;;;19.70;99.90;;;;;;10211987;29;20298;-84
2022/05/09 14:43:00;;;;;;;3.05;1.50;;;19.60;99.90;;;;;;10199545;29;20259;-89
2022/05/09 14:48:30;;;;;;;3.88;1.40;;;19.60;99.90;;;;;;10209989;29;20390;-87
2022/05/09 14:53:54;;;;;;;3.88;1.90;;;19.20;99.90;;;;;;10216612;29;20530;-88
2022/05/09 14:59:20;;;;;;;5.53;1.73;;;19.00;99.90;;;;;;10212307;29;20191;-84
2022/05/09 15:04:42;;;;;;;4.47;1.88;;;18.90;99.90;;;;;;10209844;29;20240;-85
2022/05/09 15:10:04;;;;;;;4.57;1.55;;;18.80;99.90;;;;;;10214225;29;20209;-91
2022/05/09 15:15:26;;;;;;;2.15;1.45;;;18.50;99.90;;;;;;10202760;29;20245;-82
2022/05/09 15:20:48;;;;;;;2.22;1.55;;;18.50;99.90;;;;;;10206420;29;20196;-92
2022/05/09 15:26:16;;;;;;;2.15;1.50;;;18.20;99.90;;;;;;10215513;29;20220;-90
2022/05/09 15:31:38;;;;;;;2.97;1.50;;;18.10;99.90;;;;;;10216232;29;20227;-86
2022/05/09 15:36:59;;;;;;;4.43;3.33;;;18.00;99.90;;;;;;10211904;29;20193;-87
2022/05/09 15:42:31;;;;;;;4.60;2.85;;;17.90;99.90;;;;;;10241758;28;20188;-92
2022/05/09 15:47:53;;;;;;;9.27;5.18;;;17.80;99.90;;;;;;10189409;29;20259;-91
2022/05/09 15:53:16;;;;;;;7.30;3.03;;;17.80;99.90;;;;;;10208239;29;20247;-92
2022/05/09 15:58:49;;;;;;;9.35;2.80;;;17.60;99.90;;;;;;10208527;29;20197;-90
2022/05/09 16:04:10;;;;;;;4.30;1.52;;;17.50;99.90;;;;;;10223075;29;20290;-94
2022/05/09 16:15:17;;;;;;;5.20;2.45;;;17.10;99.90;;;;;;10221249;29;20352;-94
2022/05/09 16:20:39;;;;;;;8.55;4.32;;;17.00;99.90;;;;;;10211128;29;20210;-92
2022/05/09 16:26:03;;;;;;;24.77;19.10;;;16.80;99.90;;;;;;10235562;28;20205;-89
2022/05/09 16:31:26;;;;;;;3.17;2.28;;;16.70;99.90;;;;;;10243468;23;20255;-89
2022/05/09 16:37:01;;;;;;;8.18;2.85;;;16.60;99.90;;;;;;10451925;28;20208;-85
2022/05/09 16:48:59;;;;;;;4.30;2.00;;;16.30;99.90;;;;;;10451011;28;20170;-93
2022/05/09 16:54:21;;;;;;;4.78;2.13;;;16.20;99.90;;;;;;10445998;28;20251;-88
2022/05/09 16:59:43;;;;;;;4.32;1.92;;;16.10;99.90;;;;;;10470420;28;20177;-86
2022/05/09 17:05:06;;;;;;;7.28;2.90;;;15.90;99.90;;;;;;10454304;28;20195;-93
2022/05/09 17:10:28;;;;;;;4.35;2.03;;;15.70;99.90;;;;;;10458423;28;20218;-93
2022/05/09 17:15:50;;;;;;;3.85;1.98;;;15.60;99.90;;;;;;10457029;28;20207;-91
2022/05/09 17:21:14;;;;;;;2.58;1.73;;;15.60;99.90;;;;;;10441353;28;20226;-94
2022/05/09 17:26:36;;;;;;;8.73;4.63;;;15.50;99.90;;;;;;10455162;28;20272;-92
2022/05/09 17:31:58;;;;;;;9.13;5.13;;;15.20;99.90;;;;;;10468599;28;20236;-93
2022/05/09 17:37:21;;;;;;;8.85;4.85;;;15.10;99.90;;;;;;10454223;28;20240;-92
2022/05/09 17:42:42;;;;;;;4.57;2.58;;;15.00;99.90;;;;;;10427260;28;20515;-90
2022/05/09 17:48:05;;;;;;;4.60;2.80;;;14.80;99.90;;;;;;10437691;28;20197;-92
2022/05/09 17:53:27;;;;;;;8.07;3.15;;;14.60;99.90;;;;;;10442626;28;20234;-92
2022/05/09 17:58:48;;;;;;;6.53;3.38;;;14.50;99.90;;;;;;10447321;28;20264;-92
2022/05/09 18:04:10;;;;;;;9.05;5.20;;;14.30;99.90;;;;;;10438091;28;20393;-89
2022/05/09 18:09:32;;;;;;;10.40;6.03;;;14.20;99.90;;;;;;10450531;28;20199;-86
2022/05/09 18:15:00;;;;;;;10.95;6.07;;;14.00;99.90;;;;;;10429539;28;20269;-83
2022/05/09 18:20:22;;;;;;;6.70;4.20;;;13.80;99.90;;;;;;10431843;28;20203;-90
2022/05/09 18:25:45;;;;;;;4.68;2.83;;;13.70;99.90;;;;;;10434754;28;20269;-91
2022/05/09 18:31:06;;;;;;;6.10;3.72;;;13.50;99.90;;;;;;10430084;28;20247;-90
2022/05/09 18:36:29;;;;;;;14.55;6.20;;;13.30;99.90;;;;;;10428899;28;20257;-93
2022/05/09 18:41:53;;;;;;;7.72;4.57;;;13.20;99.90;;;;;;10457111;28;20190;-90
2022/05/09 18:47:14;;;;;;;12.63;5.63;;;13.10;99.90;;;;;;10441520;28;20490;-93
2022/05/09 18:52:37;;;;;;;10.02;4.28;;;13.00;99.90;;;;;;10441237;28;20434;-92
2022/05/09 18:58:01;;;;;;;10.55;5.10;;;13.00;99.90;;;;;;10455955;28;20203;-91
2022/05/09 19:03:22;;;;;;;8.77;4.40;;;12.90;99.90;;;;;;10413176;28;20228;-92
2022/05/09 19:08:44;;;;;;;10.48;6.05;;;12.60;99.90;;;;;;10412726;28;20197;-91
2022/05/09 19:14:06;;;;;;;13.32;7.25;;;12.50;99.90;;;;;;10441000;28;20425;-88
2022/05/09 19:19:27;;;;;;;14.85;6.13;;;12.30;99.90;;;;;;10426523;28;20198;-92
2022/05/09 19:24:50;;;;;;;10.95;6.50;;;12.20;99.90;;;;;;10426983;28;20207;-91
2022/05/09 19:30:15;;;;;;;13.85;7.07;;;12.10;99.90;;;;;;10442138;28;20236;-83
2022/05/09 19:35:37;;;;;;;17.42;9.30;;;12.00;99.90;;;;;;10449568;28;20266;-90
2022/05/09 19:41:00;;;;;;;21.85;10.32;;;11.70;99.90;;;;;;10454983;28;20207;-88
2022/05/09 19:46:22;;;;;;;17.55;8.43;;;11.60;99.90;;;;;;10445108;28;20277;-90
2022/05/09 19:51:44;;;;;;;19.80;9.43;;;11.50;99.90;;;;;;10467885;28;20230;-86
2022/05/09 19:57:09;;;;;;;23.38;11.40;;;11.40;99.90;;;;;;10438673;28;20239;-87
2022/05/09 20:02:30;;;;;;;17.80;9.80;;;11.40;99.90;;;;;;10424374;28;20254;-83
2022/05/09 20:07:52;;;;;;;17.10;8.15;;;11.40;99.90;;;;;;10451762;28;20239;-84
2022/05/09 20:13:17;;;;;;;19.02;9.63;;;11.30;99.90;;;;;;10423647;28;20402;-84
2022/05/09 20:18:40;;;;;;;14.80;7.50;;;11.10;99.90;;;;;;10437745;28;20215;-84
2022/05/09 20:24:02;;;;;;;12.83;7.87;;;11.00;99.90;;;;;;10423553;28;20282;-83
2022/05/09 20:35:08;;;;;;;16.92;7.80;;;10.80;99.90;;;;;;10441568;28;20559;-83
2022/05/09 20:40:34;;;;;;;11.23;6.97;;;10.70;99.90;;;;;;10406694;28;20205;-89
2022/05/09 20:45:56;;;;;;;14.15;6.82;;;10.70;99.90;;;;;;10430660;28;20202;-92
2022/05/09 20:51:18;;;;;;;13.25;6.93;;;10.60;99.90;;;;;;10416140;28;20216;-89
2022/05/09 20:56:39;;;;;;;15.57;8.30;;;10.50;99.90;;;;;;10422702;28;20276;-89
2022/05/09 21:02:02;;;;;;;15.03;7.67;;;10.50;99.90;;;;;;10436791;28;20384;-84
2022/05/09 21:07:24;;;;;;;16.33;7.07;;;10.50;99.90;;;;;;10435935;28;20551;-88
2022/05/09 21:12:45;;;;;;;12.83;6.83;;;10.50;99.90;;;;;;10436309;28;20583;-90
2022/05/09 21:18:07;;;;;;;17.80;8.83;;;10.30;99.90;;;;;;10422418;28;20207;-90
2022/05/09 21:23:30;;;;;;;18.27;8.10;;;10.30;99.90;;;;;;10436684;28;20268;-90
2022/05/09 21:28:51;;;;;;;18.63;8.30;;;10.20;99.90;;;;;;10421593;28;20211;-91
2022/05/09 21:34:12;;;;;;;16.93;8.03;;;10.20;99.90;;;;;;10407880;28;20305;-85
2022/05/09 21:45:25;;;;;;;15.23;8.60;;;10.10;99.90;;;;;;10375832;28;20280;-84
2022/05/09 21:50:47;;;;;;;10.33;6.83;;;10.00;99.90;;;;;;10370244;28;20243;-92
2022/05/09 21:56:10;;;;;;;11.00;6.80;;;9.90;99.90;;;;;;10400388;28;20207;-92
2022/05/09 22:01:31;;;;;;;17.10;7.83;;;9.80;99.90;;;;;;10369452;28;20292;-86
2022/05/09 22:06:54;;;;;;;16.77;7.87;;;9.80;99.90;;;;;;10382971;28;20216;-92
2022/05/09 22:12:15;;;;;;;15.93;7.40;;;9.70;99.90;;;;;;10390992;28;20258;-90
2022/05/09 22:17:37;;;;;;;16.70;8.40;;;9.70;99.90;;;;;;10355528;28;20218;-85
2022/05/09 22:22:58;;;;;;;18.77;9.90;;;;;;;;;;10387110;28;20266;-82
2022/05/09 22:28:21;;;;;;;18.80;9.87;;;9.50;1.00;;;;;;10386537;28;20201;-84
2022/05/09 22:33:42;;;;;;;23.53;11.10;;;9.50;1.00;;;;;;10386332;28;20294;-84
2022/05/09 22:39:04;;;;;;;16.17;8.97;;;9.40;1.00;;;;;;10416812;28;20251;-86
2022/05/09 22:44:26;;;;;;;14.87;8.77;;;9.50;1.00;;;;;;10427131;28;20222;-88
2022/05/09 22:49:47;;;;;;;12.77;7.93;;;9.50;1.00;;;;;;10427006;28;20207;-82
2022/05/09 22:55:09;;;;;;;13.97;7.70;;;9.50;1.00;;;;;;10426384;28;20247;-83
2022/05/09 23:00:33;;;;;;;14.73;7.30;;;;;;;;;;10426247;28;20207;-92
2022/05/09 23:05:55;;;;;;;15.57;7.40;;;9.20;99.90;;;;;;10426513;28;20208;-91
2022/05/09 23:11:17;;;;;;;13.90;7.33;;;9.10;1.00;;;;;;10412237;28;20700;-85
2022/05/09 23:16:38;;;;;;;12.83;7.17;;;9.10;1.00;;;;;;10412337;28;20214;-89
2022/05/09 23:22:00;;;;;;;13.53;7.50;;;9.10;1.00;;;;;;10412077;28;20427;-86
2022/05/09 23:27:22;;;;;;;14.57;7.40;;;9.00;1.00;;;;;;10426232;28;20375;-92
2022/05/09 23:32:43;;;;;;;16.40;7.40;;;9.00;1.00;;;;;;10425294;28;20243;-90
2022/05/09 23:38:04;;;;;;;13.50;7.53;;;9.00;1.00;;;;;;10440730;28;20210;-92
2022/05/09 23:43:34;;;;;;;12.60;7.10;;;8.90;1.00;;;;;;10425234;28;20275;-92
2022/05/09 23:48:58;;;;;;;13.63;6.83;;;8.90;1.00;;;;;;10444050;28;20211;-91
2022/05/09 23:54:19;;;;;;;17.37;8.23;;;8.80;1.00;;;;;;10411359;28;20277;-93
2022/05/09 23:59:41;;;;;;;12.93;8.60;;;8.70;99.90;;;;;;10425435;28;20275;-92
